createdAt,value
2023-05-17T00:02:21.581Z,4.86
2023-05-17T00:04:53.856Z,4.91
2023-05-17T00:07:26.112Z,4.86
2023-05-17T00:09:58.461Z,5.09
2023-05-17T00:12:30.835Z,5.11
2023-05-17T00:15:05.696Z,4.96
2023-05-17T00:17:38.370Z,4.77
2023-05-17T00:20:11.982Z,5.00
2023-05-17T00:22:45.873Z,5.14
2023-05-17T00:25:18.551Z,5.26
2023-05-17T00:27:50.943Z,5.27
2023-05-17T00:30:25.795Z,5.24
2023-05-17T00:32:57.951Z,5.22
2023-05-17T00:35:30.651Z,5.32
2023-05-17T00:38:03.388Z,5.26
2023-05-17T00:40:35.646Z,5.51
2023-05-17T00:43:07.876Z,5.44
2023-05-17T00:45:42.702Z,5.31
2023-05-17T00:48:15.683Z,5.48
2023-05-17T00:50:48.467Z,5.21
2023-05-17T00:53:21.226Z,5.35
2023-05-17T00:55:53.744Z,5.04
2023-05-17T00:58:26.993Z,5.41
2023-05-17T01:01:03.324Z,5.20
2023-05-17T01:03:35.817Z,5.11
2023-05-17T01:06:10.136Z,5.06
2023-05-17T01:08:42.521Z,5.13
2023-05-17T01:11:28.129Z,5.21
2023-05-17T01:14:22.929Z,5.19
2023-05-17T01:17:03.116Z,5.16
2023-05-17T01:20:02.280Z,5.31
2023-05-17T01:22:48.259Z,5.41
2023-05-17T01:25:45.856Z,5.38
2023-05-17T01:28:24.397Z,5.26
2023-05-17T01:30:57.892Z,5.32
2023-05-17T01:33:30.286Z,5.43
2023-05-17T01:36:02.550Z,5.34
2023-05-17T01:38:34.892Z,5.32
2023-05-17T01:41:17.809Z,5.26
2023-05-17T01:44:02.808Z,5.67
2023-05-17T01:46:42.986Z,5.24
2023-05-17T01:49:22.090Z,5.19
2023-05-17T01:52:07.132Z,5.76
2023-05-17T01:54:45.327Z,5.64
2023-05-17T01:57:19.689Z,5.84
2023-05-17T01:59:55.910Z,5.68
2023-05-17T02:02:28.632Z,5.21
2023-05-17T02:05:01.358Z,5.70
2023-05-17T02:07:33.896Z,5.71
2023-05-17T02:10:06.620Z,5.53
2023-05-17T02:12:39.050Z,5.66
2023-05-17T02:15:16.736Z,5.63
2023-05-17T02:17:49.267Z,5.50
2023-05-17T02:20:21.555Z,5.46
2023-05-17T02:22:53.793Z,5.51
2023-05-17T02:25:26.220Z,5.61
2023-05-17T02:27:58.501Z,5.46
2023-05-17T02:30:33.293Z,5.58
2023-05-17T02:33:05.631Z,5.61
2023-05-17T02:35:38.301Z,5.61
2023-05-17T02:38:10.781Z,5.71
2023-05-17T02:40:45.693Z,5.87
2023-05-17T02:43:17.914Z,6.01
2023-05-17T02:45:52.684Z,5.57
2023-05-17T02:48:25.110Z,5.41
2023-05-17T02:50:57.315Z,5.71
2023-05-17T02:53:29.539Z,5.74
2023-05-17T02:56:01.783Z,5.78
2023-05-17T02:58:34.101Z,5.61
2023-05-17T03:01:09.668Z,5.61
2023-05-17T03:03:41.965Z,5.74
2023-05-17T03:06:14.234Z,5.73
2023-05-17T03:08:46.501Z,5.69
2023-05-17T03:11:18.869Z,5.61
2023-05-17T03:13:52.001Z,5.58
2023-05-17T03:16:26.770Z,5.52
2023-05-17T03:18:59.170Z,5.69
2023-05-17T03:21:31.846Z,5.46
2023-05-17T03:24:04.161Z,5.32
2023-05-17T03:26:36.475Z,5.49
2023-05-17T03:29:08.825Z,5.31
2023-05-17T03:31:43.788Z,5.36
2023-05-17T03:34:15.964Z,5.32
2023-05-17T03:36:48.130Z,5.46
2023-05-17T03:39:20.579Z,5.30
2023-05-17T03:41:52.871Z,5.39
2023-05-17T03:44:25.085Z,5.14
2023-05-17T03:46:59.866Z,5.16
2023-05-17T03:49:32.294Z,5.01
2023-05-17T03:52:04.478Z,5.21
2023-05-17T03:54:36.715Z,5.21
2023-05-17T03:57:09.375Z,5.34
2023-05-17T03:59:41.802Z,5.14
2023-05-17T04:02:18.976Z,5.17
2023-05-17T04:04:53.964Z,4.96
2023-05-17T04:07:26.195Z,4.91
2023-05-17T04:09:59.516Z,4.96
2023-05-17T04:12:31.787Z,4.87
2023-05-17T04:15:04.019Z,4.59
2023-05-17T04:17:38.948Z,4.69
2023-05-17T04:20:12.097Z,4.13
2023-05-17T04:22:44.345Z,4.39
2023-05-17T04:25:16.618Z,4.30
2023-05-17T04:27:49.935Z,4.16
2023-05-17T04:30:24.299Z,3.99
2023-05-17T04:32:59.264Z,4.04
2023-05-17T04:35:31.527Z,3.74
2023-05-17T04:38:03.950Z,3.87
2023-05-17T04:40:36.242Z,3.70
2023-05-17T04:43:08.515Z,3.59
2023-05-17T04:45:41.272Z,3.12
2023-05-17T04:48:16.995Z,3.13
2023-05-17T04:50:49.938Z,3.27
2023-05-17T04:53:22.293Z,3.25
2023-05-17T04:55:54.517Z,3.06
2023-05-17T04:58:27.151Z,3.32
2023-05-17T05:00:59.371Z,3.36
2023-05-17T05:03:34.193Z,3.15
2023-05-17T05:06:06.616Z,3.16
2023-05-17T05:08:39.295Z,3.17
2023-05-17T05:11:11.610Z,3.02
2023-05-17T05:13:43.852Z,2.74
2023-05-17T05:16:16.063Z,2.84
2023-05-17T05:18:51.199Z,2.61
2023-05-17T05:21:23.595Z,2.77
2023-05-17T05:23:55.838Z,2.60
2023-05-17T05:26:28.054Z,2.61
2023-05-17T05:29:00.611Z,2.53
2023-05-17T05:31:33.436Z,2.61
2023-05-17T05:34:08.385Z,2.70
2023-05-17T05:36:40.888Z,2.56
2023-05-17T05:39:13.299Z,2.56
2023-05-17T05:41:46.233Z,2.84
2023-05-17T05:44:18.475Z,2.72
2023-05-17T05:46:50.770Z,2.45
2023-05-17T05:49:25.919Z,2.66
2023-05-17T05:51:58.272Z,2.65
2023-05-17T05:54:30.519Z,2.56
2023-05-17T05:57:02.813Z,2.36
2023-05-17T05:59:35.279Z,2.53
2023-05-17T06:02:08.716Z,2.56
2023-05-17T06:04:45.497Z,2.55
2023-05-17T06:07:18.214Z,2.52
2023-05-17T06:09:51.529Z,2.75
2023-05-17T06:12:23.747Z,2.49
2023-05-17T06:14:56.003Z,2.48
2023-05-17T06:17:28.244Z,2.27
2023-05-17T06:20:03.389Z,2.51
2023-05-17T06:22:35.765Z,2.56
2023-05-17T06:25:08.462Z,2.35
2023-05-17T06:27:40.744Z,2.00
2023-05-17T06:30:14.387Z,1.77
2023-05-17T06:32:46.716Z,1.86
2023-05-17T06:35:21.736Z,1.94
2023-05-17T06:37:54.218Z,1.87
2023-05-17T06:40:27.372Z,1.89
2023-05-17T06:42:59.609Z,1.92
2023-05-17T06:45:32.012Z,1.71
2023-05-17T06:48:04.281Z,1.86
2023-05-17T06:50:39.102Z,1.64
2023-05-17T06:53:11.717Z,1.72
2023-05-17T06:55:43.966Z,1.74
2023-05-17T06:58:16.243Z,1.66
2023-05-17T07:00:48.585Z,1.74
2023-05-17T07:03:20.908Z,1.74
2023-05-17T07:05:55.857Z,1.86
2023-05-17T07:08:28.624Z,2.02
2023-05-17T07:11:01.402Z,1.91
2023-05-17T07:13:34.221Z,1.81
2023-05-17T07:16:06.485Z,1.95
2023-05-17T07:18:38.982Z,1.87
2023-05-17T07:21:13.800Z,1.84
2023-05-17T07:23:46.566Z,1.84
2023-05-17T07:26:18.876Z,2.04
2023-05-17T07:28:51.939Z,1.85
2023-05-17T07:31:24.173Z,1.89
2023-05-17T07:33:57.428Z,1.99
2023-05-17T07:36:32.389Z,1.82
2023-05-17T07:39:05.489Z,1.74
2023-05-17T07:41:37.768Z,1.74
2023-05-17T07:44:10.255Z,1.69
2023-05-17T07:46:42.548Z,1.81
2023-05-17T07:49:15.295Z,1.61
2023-05-17T07:51:50.160Z,1.63
2023-05-17T07:54:31.185Z,1.73
2023-05-17T07:57:03.380Z,1.57
2023-05-17T07:59:35.781Z,1.55
2023-05-17T08:02:08.095Z,1.73
2023-05-17T08:04:42.039Z,1.74
2023-05-17T08:07:16.875Z,1.69
2023-05-17T08:09:49.133Z,1.79
2023-05-17T08:12:21.407Z,1.54
2023-05-17T08:14:53.683Z,1.64
2023-05-17T08:17:26.080Z,1.66
2023-05-17T08:19:58.400Z,1.48
2023-05-17T08:22:33.257Z,1.63
2023-05-17T08:25:05.516Z,1.69
2023-05-17T08:27:37.754Z,1.66
2023-05-17T08:30:15.047Z,1.62
2023-05-17T08:32:51.158Z,1.66
2023-05-17T08:35:25.538Z,1.67
2023-05-17T08:38:01.784Z,1.74
2023-05-17T08:40:34.220Z,1.61
2023-05-17T08:43:06.965Z,1.51
2023-05-17T08:45:39.961Z,1.66
2023-05-17T08:48:12.588Z,1.49
2023-05-17T08:50:45.262Z,1.37
2023-05-17T08:53:22.220Z,1.46
2023-05-17T08:55:57.595Z,1.44
2023-05-17T08:58:36.053Z,1.51
2023-05-17T09:01:14.248Z,1.41
2023-05-17T09:03:49.926Z,1.26
2023-05-17T09:06:25.997Z,1.29
2023-05-17T09:09:01.891Z,1.53
2023-05-17T09:11:35.961Z,1.58
2023-05-17T09:14:10.710Z,1.66
2023-05-17T09:16:44.133Z,1.59
2023-05-17T09:19:20.858Z,1.38
2023-05-17T09:21:53.149Z,1.51
2023-05-17T09:24:34.850Z,1.42
2023-05-17T09:27:08.271Z,1.56
2023-05-17T09:29:43.228Z,1.43
2023-05-17T09:32:20.757Z,1.34
2023-05-17T09:34:53.322Z,1.33
2023-05-17T09:37:26.385Z,1.34
2023-05-17T09:40:01.252Z,1.44
2023-05-17T09:42:36.921Z,1.46
2023-05-17T09:45:10.072Z,1.36
2023-05-17T09:47:42.307Z,1.49
2023-05-17T09:50:25.274Z,1.40
2023-05-17T09:53:00.062Z,1.46
2023-05-17T09:55:36.322Z,1.47
2023-05-17T09:58:09.607Z,1.37
2023-05-17T10:00:41.855Z,1.46
2023-05-17T10:03:17.579Z,1.49
2023-05-17T10:05:50.620Z,1.33
2023-05-17T10:08:28.512Z,1.31
2023-05-17T10:11:07.828Z,1.26
2023-05-17T10:13:49.089Z,1.33
2023-05-17T10:16:24.975Z,1.36
2023-05-17T10:18:57.767Z,1.34
2023-05-17T10:21:30.812Z,1.13
2023-05-17T10:24:06.394Z,1.25
2023-05-17T10:26:41.839Z,1.41
2023-05-17T10:29:14.787Z,1.21
2023-05-17T10:31:50.434Z,1.26
2023-05-17T10:34:24.295Z,1.32
2023-05-17T10:36:57.683Z,1.22
2023-05-17T10:39:30.037Z,1.38
2023-05-17T10:42:14.737Z,1.45
2023-05-17T10:44:47.943Z,1.34
2023-05-17T10:47:20.322Z,1.24
2023-05-17T10:49:52.752Z,1.48
2023-05-17T10:52:27.600Z,1.31
2023-05-17T10:55:03.408Z,1.26
2023-05-17T10:57:51.088Z,1.27
2023-05-17T11:00:29.552Z,1.35
2023-05-17T11:03:17.419Z,1.31
2023-05-17T11:06:24.036Z,1.51
2023-05-17T11:09:18.888Z,1.29
2023-05-17T11:12:10.014Z,1.49
2023-05-17T11:14:52.701Z,1.40
2023-05-17T11:17:29.050Z,1.45
2023-05-17T11:20:12.295Z,1.44
2023-05-17T11:22:47.687Z,1.34
2023-05-17T11:25:21.091Z,1.43
2023-05-17T11:27:55.748Z,1.42
2023-05-17T11:30:33.660Z,1.66
2023-05-17T11:33:17.141Z,1.59
2023-05-17T11:35:59.137Z,1.39
2023-05-17T11:38:34.615Z,1.49
2023-05-17T11:43:57.562Z,1.59
2023-05-17T11:46:32.786Z,1.64
2023-05-17T11:49:05.560Z,1.56
2023-05-17T11:51:38.626Z,1.59
2023-05-17T11:54:11.387Z,1.68
2023-05-17T11:56:44.909Z,1.54
2023-05-17T11:59:23.648Z,1.65
2023-05-17T12:01:58.645Z,1.65
2023-05-17T12:04:33.202Z,1.76
2023-05-17T12:07:05.739Z,1.71
2023-05-17T12:09:38.357Z,1.68
2023-05-17T12:12:11.158Z,1.79
2023-05-17T12:14:48.455Z,1.82
2023-05-17T12:17:34.937Z,1.77
2023-05-17T12:20:14.313Z,1.60
2023-05-17T12:22:56.663Z,1.52
2023-05-17T12:25:29.932Z,1.70
2023-05-17T12:28:22.264Z,1.61
2023-05-17T12:30:58.039Z,1.73
2023-05-17T12:33:36.221Z,1.72
2023-05-17T12:36:09.560Z,1.86
2023-05-17T12:38:43.981Z,1.89
2023-05-17T12:41:18.706Z,1.71
2023-05-17T12:43:53.140Z,1.91
2023-05-17T12:46:29.581Z,2.06
2023-05-17T12:49:09.648Z,2.04
2023-05-17T12:51:46.307Z,1.93
2023-05-17T12:54:29.491Z,2.08
2023-05-17T12:57:01.917Z,3.39
2023-05-17T12:59:36.666Z,2.46
2023-05-17T13:02:09.411Z,2.22
2023-05-17T13:04:44.365Z,2.45
2023-05-17T13:07:24.783Z,2.84
2023-05-17T13:09:57.055Z,2.51
2023-05-17T13:12:29.489Z,2.30
2023-05-17T13:15:01.683Z,2.14
2023-05-17T13:17:45.132Z,1.85
2023-05-17T13:20:20.174Z,1.77
2023-05-17T13:22:53.567Z,1.73
2023-05-17T13:25:25.823Z,1.76
2023-05-17T13:27:58.093Z,1.71
2023-05-17T13:30:30.541Z,1.83
2023-05-17T13:33:02.983Z,1.95
2023-05-17T13:35:38.855Z,2.11
2023-05-17T13:38:11.009Z,2.18
2023-05-17T13:40:43.229Z,2.66
2023-05-17T13:43:15.442Z,2.35
2023-05-17T13:45:51.039Z,2.67
2023-05-17T13:48:23.325Z,2.91
2023-05-17T13:50:58.666Z,2.59
2023-05-17T13:53:30.881Z,2.64
2023-05-17T13:56:03.080Z,2.41
2023-05-17T13:58:35.319Z,2.14
2023-05-17T14:01:07.941Z,2.11
2023-05-17T14:03:40.230Z,1.81
2023-05-17T14:06:15.173Z,1.76
2023-05-17T14:08:47.539Z,2.81
2023-05-17T14:11:19.805Z,2.12
2023-05-17T14:13:52.086Z,1.74
2023-05-17T14:16:24.739Z,1.86
2023-05-17T14:18:57.114Z,1.61
2023-05-17T14:21:32.099Z,1.78
2023-05-17T14:24:04.363Z,1.69
2023-05-17T14:26:36.922Z,1.81
2023-05-17T14:29:09.277Z,1.69
2023-05-17T14:31:41.733Z,1.65
2023-05-17T14:34:14.097Z,1.58
2023-05-17T14:36:48.881Z,1.64
2023-05-17T14:39:21.096Z,1.71
2023-05-17T14:41:53.329Z,1.67
2023-05-17T14:44:27.176Z,1.75
2023-05-17T14:46:59.404Z,1.77
2023-05-17T14:49:31.595Z,1.74
2023-05-17T14:52:06.371Z,1.80
2023-05-17T14:54:38.563Z,1.64
2023-05-17T14:57:12.037Z,1.74
2023-05-17T14:59:45.347Z,1.67
2023-05-17T15:02:17.590Z,1.81
2023-05-17T15:04:50.015Z,1.48
2023-05-17T15:07:24.963Z,1.74
2023-05-17T15:09:57.731Z,1.81
2023-05-17T15:12:29.995Z,1.72
2023-05-17T15:15:02.820Z,1.60
2023-05-17T15:17:35.136Z,1.82
2023-05-17T15:20:08.638Z,1.76
2023-05-17T15:22:44.689Z,1.68
2023-05-17T15:25:17.017Z,1.77
2023-05-17T15:27:49.345Z,1.72
2023-05-17T15:30:27.135Z,1.90
2023-05-17T15:33:00.203Z,1.72
2023-05-17T15:35:32.585Z,1.77
2023-05-17T15:38:08.933Z,1.72
2023-05-17T15:40:41.117Z,1.74
2023-05-17T15:43:13.366Z,1.82
2023-05-17T15:45:45.801Z,1.87
2023-05-17T15:48:18.089Z,1.74
2023-05-17T15:50:50.333Z,1.65
2023-05-17T15:53:25.267Z,1.65
2023-05-17T15:55:57.668Z,1.86
2023-05-17T15:58:33.469Z,1.81
2023-05-17T16:01:07.940Z,1.81
2023-05-17T16:03:40.530Z,1.85
2023-05-17T16:06:14.507Z,1.94
2023-05-17T16:08:49.392Z,1.76
2023-05-17T16:11:21.654Z,1.74
2023-05-17T16:13:53.943Z,1.92
2023-05-17T16:16:26.198Z,1.98
2023-05-17T16:18:58.489Z,1.69
2023-05-17T16:21:31.486Z,1.82
2023-05-17T16:24:06.802Z,1.84
2023-05-17T16:26:40.063Z,1.97
2023-05-17T16:29:13.772Z,1.91
2023-05-17T16:31:46.480Z,1.74
2023-05-17T16:34:18.912Z,1.93
2023-05-17T16:36:51.309Z,1.81
2023-05-17T16:39:27.388Z,1.75
2023-05-17T16:41:59.656Z,2.01
2023-05-17T16:44:31.886Z,1.85
2023-05-17T16:47:05.200Z,1.93
2023-05-17T16:49:38.821Z,2.04
2023-05-17T16:52:11.531Z,1.86
2023-05-17T16:54:46.318Z,1.81
2023-05-17T16:57:19.034Z,1.90
2023-05-17T16:59:51.314Z,2.01
2023-05-17T17:02:24.709Z,1.85
2023-05-17T17:04:58.650Z,1.74
2023-05-17T17:07:30.852Z,1.83
2023-05-17T17:10:06.032Z,1.97
2023-05-17T17:12:38.300Z,2.02
2023-05-17T17:15:12.311Z,1.97
2023-05-17T17:17:45.892Z,2.05
2023-05-17T17:20:18.462Z,1.85
2023-05-17T17:22:50.686Z,2.23
2023-05-17T17:25:25.984Z,1.96
2023-05-17T17:27:58.303Z,1.96
2023-05-17T17:30:30.882Z,2.11
2023-05-17T17:33:03.389Z,1.95
2023-05-17T17:35:35.842Z,1.99
2023-05-17T17:38:08.090Z,2.02
2023-05-17T17:40:42.869Z,2.01
2023-05-17T17:43:15.166Z,2.04
2023-05-17T17:45:48.485Z,2.00
2023-05-17T17:48:20.683Z,1.96
2023-05-17T17:50:52.874Z,2.07
2023-05-17T17:53:25.206Z,2.06
2023-05-17T17:56:00.044Z,2.11
2023-05-17T17:58:32.548Z,2.10
2023-05-17T18:01:04.698Z,2.04
2023-05-17T18:03:37.027Z,2.19
2023-05-17T18:06:09.665Z,2.05
2023-05-17T18:08:41.954Z,2.06
2023-05-17T18:11:16.788Z,1.98
2023-05-17T18:13:48.967Z,2.07
2023-05-17T18:16:21.276Z,2.01
2023-05-17T18:18:53.691Z,2.08
2023-05-17T18:21:25.971Z,2.01
2023-05-17T18:23:58.175Z,2.25
2023-05-17T18:26:32.953Z,2.01
2023-05-17T18:29:05.567Z,2.11
2023-05-17T18:31:37.879Z,2.06
2023-05-17T18:34:10.102Z,2.09
2023-05-17T18:36:42.508Z,1.99
2023-05-17T18:39:14.974Z,1.93
2023-05-17T18:41:49.774Z,1.90
2023-05-17T18:44:22.157Z,1.83
2023-05-17T18:46:54.649Z,1.91
2023-05-17T18:49:27.377Z,1.86
2023-05-17T18:51:59.583Z,2.19
2023-05-17T18:54:31.836Z,1.86
2023-05-17T18:57:06.707Z,2.04
2023-05-17T18:59:38.878Z,1.97
2023-05-17T19:02:11.361Z,1.79
2023-05-17T19:04:43.525Z,1.96
2023-05-17T19:07:15.824Z,1.82
2023-05-17T19:09:48.028Z,2.00
2023-05-17T19:12:22.817Z,2.13
2023-05-17T19:14:55.019Z,1.87
2023-05-17T19:17:27.347Z,1.89
2023-05-17T19:19:59.832Z,1.97
2023-05-17T19:22:32.070Z,2.06
2023-05-17T19:25:04.628Z,2.20
2023-05-17T19:27:39.395Z,2.11
2023-05-17T19:30:13.292Z,1.96
2023-05-17T19:32:45.577Z,1.89
2023-05-17T19:35:17.876Z,2.13
2023-05-17T19:37:50.077Z,2.11
2023-05-17T19:40:23.287Z,2.12
2023-05-17T19:42:58.071Z,2.33
2023-05-17T19:45:30.286Z,2.27
2023-05-17T19:48:02.753Z,2.14
2023-05-17T19:50:35.013Z,2.16
2023-05-17T19:53:07.402Z,2.19
2023-05-17T19:55:41.167Z,2.11
2023-05-17T19:58:16.017Z,2.21
2023-05-17T20:00:48.305Z,2.28
2023-05-17T20:03:20.647Z,2.26
2023-05-17T20:05:53.291Z,2.26
2023-05-17T20:08:25.790Z,2.17
2023-05-17T20:10:58.049Z,2.22
2023-05-17T20:13:34.370Z,2.36
2023-05-17T20:16:12.364Z,2.15
2023-05-17T20:18:46.089Z,2.23
2023-05-17T20:21:21.898Z,2.24
2023-05-17T20:24:00.968Z,2.50
2023-05-17T20:26:36.994Z,2.50
2023-05-17T20:29:12.878Z,2.64
2023-05-17T20:31:45.199Z,2.68
2023-05-17T20:34:17.473Z,2.87
2023-05-17T20:36:49.692Z,3.05
2023-05-17T20:39:22.382Z,2.84
2023-05-17T20:41:54.648Z,2.83
2023-05-17T20:44:29.634Z,3.07
2023-05-17T20:47:02.049Z,2.89
2023-05-17T20:49:34.305Z,3.09
2023-05-17T20:52:07.446Z,2.96
2023-05-17T20:54:40.081Z,2.87
2023-05-17T20:57:12.265Z,2.92
2023-05-17T20:59:47.055Z,3.04
2023-05-17T21:02:19.888Z,2.95
2023-05-17T21:04:52.766Z,2.91
2023-05-17T21:07:26.599Z,3.16
2023-05-17T21:09:58.823Z,2.82
2023-05-17T21:12:31.017Z,2.93
2023-05-17T21:15:16.355Z,2.79
2023-05-17T21:17:49.499Z,2.96
2023-05-17T21:20:23.785Z,2.89
2023-05-17T21:22:57.034Z,2.86
2023-05-17T21:25:29.623Z,2.88
2023-05-17T21:28:01.961Z,3.12
2023-05-17T21:30:36.863Z,2.81
2023-05-17T21:33:09.208Z,2.97
2023-05-17T21:35:41.590Z,3.02
2023-05-17T21:38:13.832Z,3.37
2023-05-17T21:40:46.267Z,3.47
2023-05-17T21:43:18.528Z,3.47
2023-05-17T21:45:53.342Z,3.34
2023-05-17T21:48:25.531Z,3.34
2023-05-17T21:50:57.782Z,3.28
2023-05-17T21:53:30.067Z,3.24
2023-05-17T21:56:03.182Z,3.50
2023-05-17T21:58:36.707Z,3.47
2023-05-17T22:01:11.675Z,3.26
2023-05-17T22:03:44.167Z,3.38
2023-05-17T22:06:16.491Z,3.47
2023-05-17T22:08:48.758Z,3.21
2023-05-17T22:11:22.918Z,3.02
2023-05-17T22:13:55.135Z,3.26
2023-05-17T22:16:33.215Z,3.14
2023-05-17T22:19:06.062Z,3.11
2023-05-17T22:21:38.309Z,3.22
2023-05-17T22:24:11.378Z,3.17
2023-05-17T22:26:43.695Z,3.27
2023-05-17T22:29:15.952Z,3.23
2023-05-17T22:31:51.061Z,3.49
2023-05-17T22:34:23.338Z,3.37
2023-05-17T22:36:55.510Z,3.05
2023-05-17T22:39:27.685Z,3.36
2023-05-17T22:42:00.963Z,3.35
2023-05-17T22:44:33.957Z,3.23
2023-05-17T22:47:14.826Z,3.14
2023-05-17T22:49:47.580Z,3.15
2023-05-17T22:52:20.039Z,3.10
2023-05-17T22:54:52.318Z,3.28
2023-05-17T22:57:24.597Z,3.43
2023-05-17T22:59:56.859Z,3.27
2023-05-17T23:02:31.740Z,3.24
2023-05-17T23:05:04.943Z,3.41
2023-05-17T23:07:41.565Z,3.62
2023-05-17T23:10:15.678Z,3.41
2023-05-17T23:12:48.859Z,3.36
2023-05-17T23:15:22.006Z,3.70
2023-05-17T23:17:59.782Z,3.89
2023-05-17T23:20:32.078Z,4.17
2023-05-17T23:23:04.332Z,4.61
2023-05-17T23:25:38.521Z,4.92
2023-05-17T23:28:10.805Z,5.35
2023-05-17T23:30:44.765Z,5.56
2023-05-17T23:33:19.624Z,5.59
2023-05-17T23:35:53.721Z,5.66
2023-05-17T23:38:26.107Z,5.73
2023-05-17T23:41:01.120Z,5.52
2023-05-17T23:43:33.312Z,5.39
2023-05-17T23:46:05.833Z,4.89
2023-05-17T23:48:40.660Z,4.70
2023-05-17T23:51:12.922Z,4.86
2023-05-17T23:53:45.063Z,4.54
2023-05-17T23:56:17.259Z,4.61
2023-05-17T23:58:50.234Z,4.51
